createdAt,value
2023-03-06T00:01:38.051Z,29.85
2023-03-06T00:04:08.993Z,24.48
2023-03-06T00:06:38.102Z,26.17
2023-03-06T00:09:07.118Z,24.70
2023-03-06T00:11:36.070Z,23.52
2023-03-06T00:14:05.414Z,28.88
2023-03-06T00:16:34.496Z,28.33
2023-03-06T00:19:03.603Z,24.02
2023-03-06T00:21:34.037Z,26.13
2023-03-06T00:24:03.109Z,25.50
2023-03-06T00:26:36.020Z,25.35
2023-03-06T00:29:05.133Z,23.58
2023-03-06T00:31:34.692Z,23.67
2023-03-06T00:34:04.046Z,23.48
2023-03-06T00:36:34.509Z,28.23
2023-03-06T00:39:04.274Z,19.73
2023-03-06T00:41:33.340Z,22.38
2023-03-06T00:44:02.416Z,27.83
2023-03-06T00:46:31.428Z,25.38
2023-03-06T00:49:00.462Z,24.58
2023-03-06T00:51:29.550Z,24.52
2023-03-06T00:54:00.261Z,22.15
2023-03-06T00:56:30.042Z,27.33
2023-03-06T00:58:59.345Z,32.53
2023-03-06T01:01:29.360Z,28.50
2023-03-06T01:03:58.375Z,21.10
2023-03-06T01:06:29.998Z,24.48
2023-03-06T01:09:01.953Z,28.15
2023-03-06T01:11:31.063Z,25.00
2023-03-06T01:14:00.111Z,24.92
2023-03-06T01:16:29.247Z,23.35
2023-03-06T01:18:58.476Z,24.23
2023-03-06T01:21:27.800Z,25.70
2023-03-06T01:23:57.208Z,23.05
2023-03-06T01:26:27.726Z,26.65
2023-03-06T01:28:57.461Z,24.90
2023-03-06T01:31:26.953Z,22.40
2023-03-06T01:33:56.070Z,26.08
2023-03-06T01:36:25.554Z,25.52
2023-03-06T01:38:54.605Z,22.55
2023-03-06T01:41:25.811Z,24.92
2023-03-06T01:43:56.519Z,21.58
2023-03-06T01:46:42.150Z,23.58
2023-03-06T01:49:19.814Z,29.27
2023-03-06T01:51:53.957Z,25.40
2023-03-06T01:54:27.915Z,24.02
2023-03-06T01:57:03.373Z,25.27
2023-03-06T01:59:36.699Z,23.52
2023-03-06T02:02:11.168Z,22.33
2023-03-06T02:04:42.518Z,23.75
2023-03-06T02:07:12.346Z,21.70
2023-03-06T02:09:41.450Z,24.00
2023-03-06T02:12:14.201Z,23.73
2023-03-06T02:14:45.691Z,22.52
2023-03-06T02:17:19.264Z,25.27
2023-03-06T02:19:59.523Z,21.65
2023-03-06T02:22:37.589Z,22.60
2023-03-06T02:25:15.248Z,24.83
2023-03-06T02:27:45.904Z,22.13
2023-03-06T02:30:17.736Z,25.35
2023-03-06T02:32:46.932Z,26.38
2023-03-06T02:35:21.190Z,23.08
2023-03-06T02:37:51.091Z,25.05
2023-03-06T02:40:24.137Z,24.85
2023-03-06T02:42:59.472Z,25.63
2023-03-06T02:45:36.784Z,24.70
2023-03-06T02:50:35.647Z,23.95
2023-03-06T02:53:07.137Z,23.65
2023-03-06T02:55:37.329Z,27.23
2023-03-06T02:58:08.134Z,22.70
2023-03-06T03:00:39.457Z,25.55
2023-03-06T03:03:11.364Z,23.25
2023-03-06T03:05:40.434Z,25.30
2023-03-06T03:08:16.539Z,27.95
2023-03-06T03:10:45.660Z,25.85
2023-03-06T03:13:19.599Z,25.00
2023-03-06T03:16:00.229Z,29.70
2023-03-06T03:18:30.050Z,26.83
2023-03-06T03:20:59.741Z,26.90
2023-03-06T03:23:29.110Z,24.05
2023-03-06T03:26:08.518Z,24.90
2023-03-06T03:28:41.082Z,27.80
2023-03-06T03:31:11.604Z,31.83
2023-03-06T03:33:41.148Z,25.00
2023-03-06T03:36:11.471Z,27.67
2023-03-06T03:38:44.323Z,31.00
2023-03-06T03:41:14.024Z,25.05
2023-03-06T03:43:45.381Z,27.42
2023-03-06T03:46:14.436Z,26.38
2023-03-06T03:48:43.646Z,29.20
2023-03-06T03:51:16.576Z,26.05
2023-03-06T03:53:50.127Z,22.70
2023-03-06T03:56:22.806Z,24.13
2023-03-06T03:59:01.089Z,30.73
2023-03-06T04:01:37.696Z,25.40
2023-03-06T04:04:08.324Z,23.73
2023-03-06T04:06:37.779Z,26.48
2023-03-06T04:09:09.184Z,21.77
2023-03-06T04:11:39.757Z,26.08
2023-03-06T04:14:10.254Z,22.05
2023-03-06T04:16:39.602Z,25.90
2023-03-06T04:19:09.290Z,25.50
2023-03-06T04:21:39.254Z,29.48
2023-03-06T04:24:10.368Z,29.30
2023-03-06T04:26:39.551Z,24.50
2023-03-06T04:29:10.141Z,26.77
2023-03-06T04:31:39.482Z,28.02
2023-03-06T04:34:09.436Z,27.65
2023-03-06T04:36:45.129Z,26.73
2023-03-06T04:39:15.805Z,26.80
2023-03-06T04:41:44.960Z,24.27
2023-03-06T04:44:17.501Z,28.00
2023-03-06T04:46:46.596Z,21.27
2023-03-06T04:49:15.684Z,28.55
2023-03-06T04:51:47.884Z,27.80
2023-03-06T04:54:18.928Z,24.08
2023-03-06T04:56:48.857Z,23.65
2023-03-06T04:59:19.336Z,24.00
2023-03-06T05:01:48.549Z,26.00
2023-03-06T05:04:17.584Z,23.98
2023-03-06T05:06:46.711Z,26.38
2023-03-06T05:09:15.916Z,22.17
2023-03-06T05:11:44.951Z,20.90
2023-03-06T05:14:13.984Z,26.05
2023-03-06T05:16:44.617Z,25.55
2023-03-06T05:19:13.745Z,23.92
2023-03-06T05:21:42.852Z,32.42
2023-03-06T05:24:12.199Z,23.67
2023-03-06T05:26:43.407Z,24.80
2023-03-06T05:29:12.494Z,27.02
2023-03-06T05:31:41.462Z,28.10
2023-03-06T05:34:14.934Z,26.67
2023-03-06T05:36:44.498Z,32.75
2023-03-06T05:39:13.689Z,30.58
2023-03-06T05:41:42.784Z,26.90
2023-03-06T05:44:11.846Z,30.80
2023-03-06T05:46:40.822Z,26.02
2023-03-06T05:49:09.935Z,31.38
2023-03-06T05:51:40.293Z,28.92
2023-03-06T05:54:09.336Z,30.48
2023-03-06T05:56:38.298Z,29.15
2023-03-06T05:59:07.352Z,28.88
2023-03-06T06:01:36.639Z,28.90
2023-03-06T06:04:05.954Z,27.08
2023-03-06T06:06:35.068Z,30.30
2023-03-06T06:09:06.067Z,28.92
2023-03-06T06:11:35.123Z,30.05
2023-03-06T06:14:04.116Z,26.98
2023-03-06T06:16:33.119Z,22.35
2023-03-06T06:19:02.158Z,28.33
2023-03-06T06:21:31.179Z,25.10
2023-03-06T06:24:00.184Z,21.08
2023-03-06T06:26:31.876Z,24.23
2023-03-06T06:29:00.895Z,24.95
2023-03-06T06:31:29.971Z,28.05
2023-03-06T06:33:59.038Z,23.88
2023-03-06T06:36:28.031Z,24.88
2023-03-06T06:38:57.326Z,27.10
2023-03-06T06:41:46.205Z,28.05
2023-03-06T06:44:19.546Z,33.22
2023-03-06T06:49:44.196Z,30.00
2023-03-06T06:52:16.165Z,28.13
2023-03-06T06:54:45.537Z,32.33
2023-03-06T06:57:15.460Z,26.45
2023-03-06T06:59:46.033Z,31.02
2023-03-06T07:02:16.805Z,28.75
2023-03-06T07:05:02.598Z,30.58
2023-03-06T07:07:34.153Z,29.88
2023-03-06T07:10:05.580Z,30.20
2023-03-06T07:12:36.669Z,26.52
2023-03-06T07:15:09.672Z,30.20
2023-03-06T07:17:40.162Z,32.58
2023-03-06T07:20:11.300Z,26.08
2023-03-06T07:22:50.357Z,27.52
2023-03-06T07:25:23.343Z,23.75
2023-03-06T07:27:54.488Z,25.88
2023-03-06T07:30:25.651Z,27.50
2023-03-06T07:32:56.481Z,26.42
2023-03-06T07:35:26.464Z,27.50
2023-03-06T07:37:56.024Z,23.20
2023-03-06T07:40:26.016Z,26.75
2023-03-06T07:43:06.058Z,25.30
2023-03-06T07:45:47.620Z,31.05
2023-03-06T07:48:19.628Z,24.73
2023-03-06T07:50:57.793Z,25.92
2023-03-06T07:53:26.980Z,26.23
2023-03-06T07:55:56.544Z,25.95
2023-03-06T07:58:26.663Z,25.30
2023-03-06T08:00:57.086Z,24.90
2023-03-06T08:03:26.248Z,23.08
2023-03-06T08:05:55.321Z,28.02
2023-03-06T08:08:24.322Z,26.05
2023-03-06T08:10:53.332Z,23.60
2023-03-06T08:13:22.395Z,25.90
2023-03-06T08:15:51.381Z,25.02
2023-03-06T08:18:21.745Z,24.55
2023-03-06T08:20:50.768Z,25.08
2023-03-06T08:23:19.779Z,23.63
2023-03-06T08:25:57.767Z,29.40
2023-03-06T08:28:28.510Z,22.30
2023-03-06T08:31:08.666Z,25.67
2023-03-06T08:33:39.482Z,20.05
2023-03-06T08:36:09.212Z,21.05
2023-03-06T08:38:38.509Z,21.83
2023-03-06T08:41:07.710Z,28.30
2023-03-06T08:43:36.839Z,23.33
2023-03-06T08:46:06.342Z,21.52
2023-03-06T08:48:35.472Z,25.10
2023-03-06T08:51:06.842Z,22.10
2023-03-06T08:53:43.250Z,23.88
2023-03-06T08:56:22.292Z,21.83
2023-03-06T08:58:54.773Z,21.60
2023-03-06T09:01:27.504Z,26.58
2023-03-06T09:03:58.810Z,24.60
2023-03-06T09:06:33.024Z,26.27
2023-03-06T09:09:05.742Z,27.92
2023-03-06T09:11:34.905Z,24.73
2023-03-06T09:14:05.035Z,24.35
2023-03-06T09:16:34.354Z,25.45
2023-03-06T09:19:03.484Z,24.02
2023-03-06T09:21:34.132Z,30.67
2023-03-06T09:24:04.043Z,25.52
2023-03-06T09:26:45.166Z,22.08
2023-03-06T09:29:16.397Z,25.75
2023-03-06T09:31:45.971Z,23.30
2023-03-06T09:34:15.017Z,24.17
2023-03-06T09:36:56.436Z,25.73
2023-03-06T09:39:27.455Z,27.65
2023-03-06T09:41:58.866Z,23.67
2023-03-06T09:44:30.764Z,23.58
2023-03-06T09:47:23.203Z,23.15
2023-03-06T09:50:11.201Z,26.08
2023-03-06T09:52:53.945Z,23.70
2023-03-06T09:55:27.178Z,25.63
2023-03-06T09:58:07.163Z,28.52
2023-03-06T10:00:41.884Z,25.52
2023-03-06T10:03:23.332Z,28.95
2023-03-06T10:05:58.655Z,23.98
2023-03-06T10:08:39.410Z,24.35
2023-03-06T10:11:12.335Z,25.63
2023-03-06T10:13:44.693Z,27.52
2023-03-06T10:16:29.235Z,27.70
2023-03-06T10:19:04.552Z,34.33
2023-03-06T10:21:57.267Z,27.02
2023-03-06T10:24:45.960Z,28.90
2023-03-06T10:27:27.826Z,28.40
2023-03-06T10:30:04.637Z,27.10
2023-03-06T10:32:49.471Z,35.13
2023-03-06T10:35:23.038Z,25.70
2023-03-06T10:37:52.177Z,26.75
2023-03-06T10:40:29.146Z,28.05
2023-03-06T10:43:10.812Z,29.15
2023-03-06T10:45:57.908Z,27.77
2023-03-06T10:48:29.911Z,31.42
2023-03-06T10:51:19.115Z,24.63
2023-03-06T10:53:55.569Z,31.55
2023-03-06T10:56:31.966Z,27.67
2023-03-06T10:59:10.376Z,26.88
2023-03-06T11:01:39.917Z,28.63
2023-03-06T11:04:23.792Z,25.13
2023-03-06T11:07:09.037Z,30.85
2023-03-06T11:09:38.089Z,26.27
2023-03-06T11:12:33.762Z,31.02
2023-03-06T11:15:27.808Z,30.38
2023-03-06T11:18:01.924Z,30.02
2023-03-06T11:20:49.923Z,33.58
2023-03-06T11:23:23.210Z,27.13
2023-03-06T11:25:57.683Z,29.30
2023-03-06T11:28:32.800Z,31.10
2023-03-06T11:31:08.261Z,29.92
2023-03-06T11:33:45.396Z,29.33
2023-03-06T11:36:22.207Z,28.63
2023-03-06T11:38:53.270Z,27.25
2023-03-06T11:41:34.871Z,31.48
2023-03-06T11:44:21.094Z,30.48
2023-03-06T11:47:02.641Z,28.60
2023-03-06T11:49:40.720Z,34.30
2023-03-06T11:52:22.240Z,27.65
2023-03-06T11:54:56.496Z,29.83
2023-03-06T11:57:35.459Z,35.05
2023-03-06T12:00:23.900Z,28.17
2023-03-06T12:03:26.168Z,26.83
2023-03-06T12:06:03.622Z,25.45
2023-03-06T12:11:24.833Z,33.53
2023-03-06T12:14:25.776Z,24.67
2023-03-06T12:17:11.705Z,30.92
2023-03-06T12:20:16.934Z,32.33
2023-03-06T12:22:57.988Z,32.75
2023-03-06T12:25:39.516Z,29.08
2023-03-06T12:28:41.541Z,25.48
2023-03-06T12:31:44.852Z,32.70
2023-03-06T12:34:33.746Z,31.17
2023-03-06T12:37:17.872Z,31.63
2023-03-06T12:40:10.085Z,31.65
2023-03-06T12:43:05.062Z,29.05
2023-03-06T12:45:37.099Z,32.08
2023-03-06T12:48:16.083Z,35.38
2023-03-06T12:50:47.216Z,27.02
2023-03-06T12:53:24.495Z,28.77
2023-03-06T12:55:55.208Z,31.05
2023-03-06T12:58:52.381Z,27.17
2023-03-06T13:01:45.108Z,28.77
2023-03-06T13:05:05.094Z,33.60
2023-03-06T13:07:53.760Z,31.83
2023-03-06T13:10:29.509Z,30.23
2023-03-06T13:13:01.622Z,39.60
2023-03-06T13:15:42.749Z,36.00
2023-03-06T13:18:51.648Z,29.95
2023-03-06T13:22:16.591Z,31.70
2023-03-06T13:24:48.300Z,30.67
2023-03-06T13:28:01.168Z,31.83
2023-03-06T13:30:48.171Z,34.35
2023-03-06T13:33:57.504Z,32.15
2023-03-06T13:36:31.045Z,30.27
2023-03-06T13:39:08.707Z,34.83
2023-03-06T13:42:08.240Z,35.78
2023-03-06T13:44:51.000Z,44.10
2023-03-06T13:48:02.813Z,34.63
2023-03-06T13:50:37.743Z,42.20
2023-03-06T13:54:09.288Z,32.72
2023-03-06T13:57:24.447Z,39.15
2023-03-06T14:00:38.274Z,85.35
2023-03-06T14:04:15.547Z,47.88
2023-03-06T14:07:24.733Z,32.97
2023-03-06T14:12:44.855Z,34.55
2023-03-06T14:15:20.103Z,35.72
2023-03-06T14:17:57.637Z,37.50
2023-03-06T14:23:23.187Z,34.47
2023-03-06T14:26:00.106Z,39.75
2023-03-06T14:28:31.008Z,38.15
2023-03-06T14:31:04.701Z,37.95
2023-03-06T14:33:43.027Z,43.53
2023-03-06T14:36:17.011Z,37.35
2023-03-06T14:38:49.482Z,28.35
2023-03-06T14:41:27.639Z,31.35
2023-03-06T14:44:10.814Z,27.17
2023-03-06T14:46:41.343Z,35.53
2023-03-06T14:49:11.285Z,40.70
2023-03-06T14:51:44.442Z,35.45
2023-03-06T14:54:19.661Z,32.67
2023-03-06T14:56:53.102Z,27.90
2023-03-06T14:59:28.506Z,30.73
2023-03-06T15:02:03.630Z,33.08
2023-03-06T15:04:40.134Z,38.33
2023-03-06T15:07:14.229Z,34.17
2023-03-06T15:09:47.892Z,31.10
2023-03-06T15:12:39.816Z,32.55
2023-03-06T15:15:32.594Z,30.77
2023-03-06T15:18:03.314Z,31.77
2023-03-06T15:20:47.158Z,31.65
2023-03-06T15:23:27.466Z,35.78
2023-03-06T15:25:59.717Z,33.80
2023-03-06T15:28:37.160Z,32.33
2023-03-06T15:34:25.593Z,32.85
2023-03-06T15:36:57.172Z,34.17
2023-03-06T15:39:37.512Z,30.90
2023-03-06T15:42:20.228Z,40.22
2023-03-06T15:44:53.079Z,68.47
2023-03-06T15:47:23.682Z,45.05
2023-03-06T15:49:54.175Z,32.50
2023-03-06T15:52:24.783Z,38.65
2023-03-06T15:54:54.100Z,40.80
2023-03-06T15:57:29.156Z,38.35
2023-03-06T16:00:00.123Z,37.58
2023-03-06T16:02:29.272Z,48.33
2023-03-06T16:05:02.480Z,34.22
2023-03-06T16:07:31.520Z,40.60
2023-03-06T16:10:03.576Z,38.85
2023-03-06T16:12:32.736Z,35.80
2023-03-06T16:15:04.263Z,35.53
2023-03-06T16:17:33.351Z,44.63
2023-03-06T16:20:03.922Z,36.33
2023-03-06T16:22:35.536Z,38.08
2023-03-06T16:25:05.248Z,43.72
2023-03-06T16:27:34.382Z,37.55
2023-03-06T16:30:03.614Z,36.88
2023-03-06T16:32:32.891Z,37.90
2023-03-06T16:35:03.408Z,59.28
2023-03-06T16:37:32.511Z,60.13
2023-03-06T16:40:01.528Z,57.72
2023-03-06T16:42:30.592Z,39.78
2023-03-06T16:44:59.706Z,41.63
2023-03-06T16:47:28.764Z,88.18
2023-03-06T16:50:01.964Z,102.55
2023-03-06T16:52:32.806Z,76.47
2023-03-06T16:55:02.050Z,52.15
2023-03-06T16:57:35.865Z,49.63
2023-03-06T17:00:08.379Z,49.45
2023-03-06T17:02:38.637Z,48.22
2023-03-06T17:05:12.297Z,48.63
2023-03-06T17:07:48.417Z,57.78
2023-03-06T17:10:22.922Z,51.17
2023-03-06T17:12:52.422Z,46.10
2023-03-06T17:15:22.124Z,44.00
2023-03-06T17:17:51.762Z,55.45
2023-03-06T17:20:23.747Z,44.75
2023-03-06T17:22:54.324Z,46.97
2023-03-06T17:25:25.802Z,37.10
2023-03-06T17:27:54.978Z,42.17
2023-03-06T17:30:24.020Z,41.50
2023-03-06T17:32:53.712Z,40.83
2023-03-06T17:35:22.915Z,39.80
2023-03-06T17:37:54.252Z,34.13
2023-03-06T17:40:25.757Z,36.50
2023-03-06T17:42:54.906Z,42.60
2023-03-06T17:45:23.941Z,44.35
2023-03-06T17:47:55.472Z,37.70
2023-03-06T17:50:24.686Z,46.85
2023-03-06T17:52:55.290Z,41.63
2023-03-06T17:55:24.279Z,44.80
2023-03-06T17:57:53.547Z,43.38
2023-03-06T18:00:24.095Z,44.85
2023-03-06T18:02:53.299Z,43.05
2023-03-06T18:05:22.336Z,44.80
2023-03-06T18:07:51.413Z,38.83
2023-03-06T18:10:22.326Z,36.95
2023-03-06T18:12:52.994Z,38.75
2023-03-06T18:15:22.302Z,43.17
2023-03-06T18:17:51.647Z,41.67
2023-03-06T18:20:20.979Z,46.58
2023-03-06T18:22:50.089Z,49.58
2023-03-06T18:25:19.241Z,43.80
2023-03-06T18:27:49.671Z,31.98
2023-03-06T18:30:19.587Z,33.92
2023-03-06T18:32:50.993Z,36.63
2023-03-06T18:35:23.171Z,40.85
2023-03-06T18:37:53.162Z,42.30
2023-03-06T18:40:24.796Z,42.97
2023-03-06T18:42:55.683Z,38.65
2023-03-06T18:45:25.634Z,39.22
2023-03-06T18:47:56.188Z,37.80
2023-03-06T18:50:25.273Z,36.33
2023-03-06T18:52:54.332Z,36.05
2023-03-06T18:55:23.558Z,35.17
2023-03-06T18:57:54.017Z,32.33
2023-03-06T19:00:24.241Z,39.40
2023-03-06T19:02:57.099Z,38.70
2023-03-06T19:05:26.272Z,33.38
2023-03-06T19:07:56.341Z,32.08
2023-03-06T19:10:27.423Z,40.20
2023-03-06T19:13:00.874Z,40.03
2023-03-06T19:15:30.521Z,40.55
2023-03-06T19:18:00.283Z,41.30
2023-03-06T19:20:29.361Z,37.22
2023-03-06T19:22:58.435Z,35.17
2023-03-06T19:25:28.720Z,42.75
2023-03-06T19:28:00.053Z,44.08
2023-03-06T19:30:34.388Z,42.75
2023-03-06T19:33:05.987Z,40.65
2023-03-06T19:35:37.904Z,37.85
2023-03-06T19:38:14.231Z,39.90
2023-03-06T19:40:50.707Z,47.17
2023-03-06T19:43:30.820Z,44.63
2023-03-06T19:46:07.005Z,36.05
2023-03-06T19:48:36.761Z,37.80
2023-03-06T19:51:07.076Z,40.72
2023-03-06T19:53:36.854Z,44.20
2023-03-06T19:56:08.639Z,42.78
2023-03-06T19:58:40.720Z,40.95
2023-03-06T20:01:13.705Z,42.25
2023-03-06T20:03:43.160Z,42.22
2023-03-06T20:06:16.407Z,43.58
2023-03-06T20:08:46.988Z,44.50
2023-03-06T20:11:17.831Z,42.10
2023-03-06T20:13:48.831Z,39.30
2023-03-06T20:16:19.660Z,45.28
2023-03-06T20:18:48.982Z,45.63
2023-03-06T20:21:18.253Z,44.90
2023-03-06T20:23:47.335Z,41.67
2023-03-06T20:26:17.096Z,43.85
2023-03-06T20:28:46.328Z,37.47
2023-03-06T20:31:21.973Z,45.90
2023-03-06T20:33:53.939Z,40.00
2023-03-06T20:36:29.049Z,45.90
2023-03-06T20:39:03.041Z,49.00
2023-03-06T20:41:35.800Z,46.38
2023-03-06T20:44:08.181Z,43.58
2023-03-06T20:46:38.937Z,49.45
2023-03-06T20:49:09.895Z,46.42
2023-03-06T20:51:45.485Z,54.60
2023-03-06T20:54:17.526Z,42.80
2023-03-06T20:56:50.204Z,52.08
2023-03-06T20:59:19.814Z,43.42
2023-03-06T21:01:50.420Z,44.63
2023-03-06T21:04:20.455Z,42.28
2023-03-06T21:06:49.484Z,40.70
2023-03-06T21:09:18.895Z,46.78
2023-03-06T21:11:48.390Z,43.17
2023-03-06T21:14:20.199Z,44.13
2023-03-06T21:16:50.595Z,46.35
2023-03-06T21:19:29.185Z,42.33
2023-03-06T21:21:58.252Z,46.33
2023-03-06T21:24:27.352Z,44.20
2023-03-06T21:26:56.420Z,40.53
2023-03-06T21:29:25.571Z,46.58
2023-03-06T21:31:56.087Z,46.28
2023-03-06T21:34:26.728Z,44.65
2023-03-06T21:36:56.027Z,48.33
2023-03-06T21:39:25.729Z,53.95
2023-03-06T21:41:57.270Z,49.70
2023-03-06T21:44:26.313Z,41.25
2023-03-06T21:46:57.964Z,47.85
2023-03-06T21:49:29.524Z,46.35
2023-03-06T21:51:58.702Z,42.28
2023-03-06T21:54:29.315Z,39.97
2023-03-06T21:56:58.481Z,42.85
2023-03-06T21:59:30.189Z,43.85
2023-03-06T22:02:00.718Z,69.15
2023-03-06T22:04:29.753Z,77.88
2023-03-06T22:06:58.822Z,68.55
2023-03-06T22:09:27.836Z,61.08
2023-03-06T22:11:57.382Z,57.33
2023-03-06T22:14:30.097Z,48.30
2023-03-06T22:17:00.560Z,44.65
2023-03-06T22:19:29.882Z,40.28
2023-03-06T22:21:58.978Z,40.83
2023-03-06T22:24:28.513Z,40.15
2023-03-06T22:26:59.318Z,40.22
2023-03-06T22:29:28.394Z,40.22
2023-03-06T22:31:57.486Z,48.42
2023-03-06T22:34:28.325Z,45.78
2023-03-06T22:36:57.440Z,43.63
2023-03-06T22:39:26.515Z,40.75
2023-03-06T22:41:56.485Z,36.08
2023-03-06T22:44:42.401Z,38.85
2023-03-06T22:47:11.453Z,40.10
2023-03-06T22:49:42.047Z,37.38
2023-03-06T22:52:15.147Z,33.28
2023-03-06T22:54:44.304Z,34.60
2023-03-06T22:57:13.550Z,40.33
2023-03-06T22:59:45.849Z,40.03
2023-03-06T23:02:17.900Z,39.45
2023-03-06T23:04:52.255Z,34.47
2023-03-06T23:07:21.905Z,38.85
2023-03-06T23:09:52.308Z,40.25
2023-03-06T23:12:44.108Z,39.25
2023-03-06T23:15:31.850Z,38.08
2023-03-06T23:18:22.547Z,41.50
2023-03-06T23:21:14.240Z,38.83
2023-03-06T23:24:05.276Z,33.38
2023-03-06T23:26:35.427Z,39.95
2023-03-06T23:29:07.802Z,39.85
2023-03-06T23:31:37.430Z,41.88
2023-03-06T23:34:06.645Z,39.83
2023-03-06T23:36:39.095Z,42.33
2023-03-06T23:39:08.157Z,34.55
2023-03-06T23:41:37.885Z,39.75
2023-03-06T23:44:07.311Z,38.55
2023-03-06T23:46:36.377Z,36.00
2023-03-06T23:49:06.280Z,41.95
2023-03-06T23:51:36.779Z,37.38
2023-03-06T23:54:06.950Z,38.53
2023-03-06T23:56:36.084Z,35.60
2023-03-06T23:59:05.117Z,37.70
